sensor_id;sensor_type;location;lat;lon;timestamp;P1;durP1;ratioP1;P2;durP2;ratioP2
14760;SDS011;7472;45.396;5.272;2022-12-07T00:01:05;58.15;;;30.52;;
14760;SDS011;7472;45.396;5.272;2022-12-07T00:03:35;34.05;;;19.20;;
14760;SDS011;7472;45.396;5.272;2022-12-07T00:06:03;37.00;;;18.38;;
14760;SDS011;7472;45.396;5.272;2022-12-07T00:08:30;35.38;;;19.33;;
14760;SDS011;7472;45.396;5.272;2022-12-07T00:11:00;33.90;;;18.27;;
14760;SDS011;7472;45.396;5.272;2022-12-07T00:13:28;35.55;;;19.02;;
14760;SDS011;7472;45.396;5.272;2022-12-07T00:15:55;36.83;;;18.27;;
14760;SDS011;7472;45.396;5.272;2022-12-07T00:18:23;37.80;;;18.23;;
14760;SDS011;7472;45.396;5.272;2022-12-07T00:20:52;35.15;;;19.00;;
14760;SDS011;7472;45.396;5.272;2022-12-07T00:23:19;40.13;;;21.97;;
14760;SDS011;7472;45.396;5.272;2022-12-07T00:25:46;34.70;;;18.52;;
14760;SDS011;7472;45.396;5.272;2022-12-07T00:28:14;36.42;;;17.95;;
14760;SDS011;7472;45.396;5.272;2022-12-07T00:30:41;31.88;;;17.73;;
14760;SDS011;7472;45.396;5.272;2022-12-07T00:33:09;39.08;;;18.83;;
14760;SDS011;7472;45.396;5.272;2022-12-07T00:35:36;35.17;;;18.83;;
14760;SDS011;7472;45.396;5.272;2022-12-07T00:38:05;38.33;;;20.27;;
14760;SDS011;7472;45.396;5.272;2022-12-07T00:40:33;37.75;;;18.80;;
14760;SDS011;7472;45.396;5.272;2022-12-07T00:43:00;32.30;;;18.10;;
14760;SDS011;7472;45.396;5.272;2022-12-07T00:45:27;32.30;;;18.27;;
14760;SDS011;7472;45.396;5.272;2022-12-07T00:47:55;36.65;;;19.17;;
14760;SDS011;7472;45.396;5.272;2022-12-07T00:50:22;33.63;;;18.00;;
14760;SDS011;7472;45.396;5.272;2022-12-07T00:52:49;35.28;;;19.05;;
14760;SDS011;7472;45.396;5.272;2022-12-07T00:55:18;33.95;;;18.15;;
14760;SDS011;7472;45.396;5.272;2022-12-07T00:57:46;36.25;;;19.13;;
14760;SDS011;7472;45.396;5.272;2022-12-07T01:00:13;38.28;;;18.88;;
14760;SDS011;7472;45.396;5.272;2022-12-07T01:02:41;36.22;;;19.63;;
14760;SDS011;7472;45.396;5.272;2022-12-07T01:05:08;41.55;;;19.42;;
14760;SDS011;7472;45.396;5.272;2022-12-07T01:16:48;36.97;;;18.40;;
14760;SDS011;7472;45.396;5.272;2022-12-07T01:19:15;31.90;;;17.73;;
14760;SDS011;7472;45.396;5.272;2022-12-07T01:21:43;37.73;;;18.50;;
14760;SDS011;7472;45.396;5.272;2022-12-07T01:24:10;39.20;;;18.63;;
14760;SDS011;7472;45.396;5.272;2022-12-07T01:26:38;29.70;;;17.30;;
14760;SDS011;7472;45.396;5.272;2022-12-07T01:29:05;31.13;;;17.65;;
14760;SDS011;7472;45.396;5.272;2022-12-07T01:31:33;36.30;;;18.47;;
14760;SDS011;7472;45.396;5.272;2022-12-07T01:34:01;32.70;;;17.88;;
14760;SDS011;7472;45.396;5.272;2022-12-07T01:36:29;32.83;;;17.40;;
14760;SDS011;7472;45.396;5.272;2022-12-07T01:38:58;29.80;;;18.33;;
14760;SDS011;7472;45.396;5.272;2022-12-07T01:41:26;39.42;;;20.05;;
14760;SDS011;7472;45.396;5.272;2022-12-07T01:46:48;36.50;;;19.05;;
14760;SDS011;7472;45.396;5.272;2022-12-07T01:49:18;32.58;;;18.27;;
14760;SDS011;7472;45.396;5.272;2022-12-07T01:51:48;31.10;;;17.60;;
14760;SDS011;7472;45.396;5.272;2022-12-07T01:54:16;37.05;;;18.90;;
14760;SDS011;7472;45.396;5.272;2022-12-07T01:56:45;29.17;;;18.13;;
14760;SDS011;7472;45.396;5.272;2022-12-07T01:59:13;31.98;;;20.20;;
14760;SDS011;7472;45.396;5.272;2022-12-07T02:01:40;35.40;;;19.15;;
14760;SDS011;7472;45.396;5.272;2022-12-07T02:04:08;33.92;;;18.65;;
14760;SDS011;7472;45.396;5.272;2022-12-07T02:06:37;33.60;;;18.40;;
14760;SDS011;7472;45.396;5.272;2022-12-07T02:09:04;33.47;;;19.83;;
14760;SDS011;7472;45.396;5.272;2022-12-07T02:11:32;34.38;;;19.05;;
14760;SDS011;7472;45.396;5.272;2022-12-07T02:13:59;37.63;;;18.83;;
14760;SDS011;7472;45.396;5.272;2022-12-07T02:16:28;34.77;;;19.90;;
14760;SDS011;7472;45.396;5.272;2022-12-07T02:19:02;29.73;;;17.67;;
14760;SDS011;7472;45.396;5.272;2022-12-07T02:21:35;33.23;;;18.43;;
14760;SDS011;7472;45.396;5.272;2022-12-07T02:24:14;31.35;;;18.50;;
14760;SDS011;7472;45.396;5.272;2022-12-07T02:26:50;30.35;;;17.85;;
14760;SDS011;7472;45.396;5.272;2022-12-07T02:29:24;30.17;;;17.83;;
14760;SDS011;7472;45.396;5.272;2022-12-07T02:31:55;26.55;;;15.90;;
14760;SDS011;7472;45.396;5.272;2022-12-07T02:34:26;26.70;;;16.80;;
14760;SDS011;7472;45.396;5.272;2022-12-07T02:36:57;24.67;;;15.27;;
14760;SDS011;7472;45.396;5.272;2022-12-07T02:39:30;26.63;;;15.13;;
14760;SDS011;7472;45.396;5.272;2022-12-07T02:42:00;25.88;;;16.60;;
14760;SDS011;7472;45.396;5.272;2022-12-07T02:44:31;21.85;;;14.23;;
14760;SDS011;7472;45.396;5.272;2022-12-07T02:47:01;24.13;;;15.17;;
14760;SDS011;7472;45.396;5.272;2022-12-07T02:49:29;28.10;;;15.87;;
14760;SDS011;7472;45.396;5.272;2022-12-07T02:51:57;25.57;;;16.43;;
14760;SDS011;7472;45.396;5.272;2022-12-07T02:54:24;24.60;;;14.70;;
14760;SDS011;7472;45.396;5.272;2022-12-07T02:56:53;27.40;;;17.50;;
14760;SDS011;7472;45.396;5.272;2022-12-07T02:59:25;29.52;;;16.13;;
14760;SDS011;7472;45.396;5.272;2022-12-07T03:01:59;26.13;;;15.60;;
14760;SDS011;7472;45.396;5.272;2022-12-07T03:04:32;32.07;;;17.17;;
14760;SDS011;7472;45.396;5.272;2022-12-07T03:07:02;25.80;;;15.82;;
14760;SDS011;7472;45.396;5.272;2022-12-07T03:09:33;26.50;;;16.17;;
14760;SDS011;7472;45.396;5.272;2022-12-07T03:12:03;26.52;;;15.63;;
14760;SDS011;7472;45.396;5.272;2022-12-07T03:14:34;26.83;;;14.80;;
14760;SDS011;7472;45.396;5.272;2022-12-07T03:17:05;24.08;;;14.88;;
14760;SDS011;7472;45.396;5.272;2022-12-07T03:19:34;22.00;;;14.03;;
14760;SDS011;7472;45.396;5.272;2022-12-07T03:22:02;23.57;;;14.03;;
14760;SDS011;7472;45.396;5.272;2022-12-07T03:24:31;24.92;;;13.18;;
14760;SDS011;7472;45.396;5.272;2022-12-07T03:27:02;28.80;;;16.88;;
14760;SDS011;7472;45.396;5.272;2022-12-07T03:29:30;31.53;;;16.57;;
14760;SDS011;7472;45.396;5.272;2022-12-07T03:31:59;38.42;;;19.15;;
14760;SDS011;7472;45.396;5.272;2022-12-07T03:34:31;33.47;;;18.55;;
14760;SDS011;7472;45.396;5.272;2022-12-07T03:37:00;37.30;;;18.58;;
14760;SDS011;7472;45.396;5.272;2022-12-07T03:39:30;30.98;;;18.35;;
14760;SDS011;7472;45.396;5.272;2022-12-07T03:41:59;39.43;;;19.63;;
14760;SDS011;7472;45.396;5.272;2022-12-07T03:44:28;31.52;;;17.48;;
14760;SDS011;7472;45.396;5.272;2022-12-07T03:46:57;34.60;;;17.80;;
14760;SDS011;7472;45.396;5.272;2022-12-07T03:49:28;35.03;;;17.80;;
14760;SDS011;7472;45.396;5.272;2022-12-07T03:52:00;33.45;;;19.17;;
14760;SDS011;7472;45.396;5.272;2022-12-07T03:54:30;38.60;;;20.00;;
14760;SDS011;7472;45.396;5.272;2022-12-07T03:57:00;34.53;;;18.27;;
14760;SDS011;7472;45.396;5.272;2022-12-07T03:59:28;32.85;;;18.52;;
14760;SDS011;7472;45.396;5.272;2022-12-07T04:01:57;40.83;;;21.30;;
14760;SDS011;7472;45.396;5.272;2022-12-07T04:04:24;36.88;;;20.25;;
14760;SDS011;7472;45.396;5.272;2022-12-07T04:06:52;39.13;;;19.92;;
14760;SDS011;7472;45.396;5.272;2022-12-07T04:09:21;36.47;;;19.75;;
14760;SDS011;7472;45.396;5.272;2022-12-07T04:11:48;42.85;;;21.90;;
14760;SDS011;7472;45.396;5.272;2022-12-07T04:14:15;39.88;;;20.40;;
14760;SDS011;7472;45.396;5.272;2022-12-07T04:16:46;41.53;;;21.02;;
14760;SDS011;7472;45.396;5.272;2022-12-07T04:19:14;37.72;;;21.13;;
14760;SDS011;7472;45.396;5.272;2022-12-07T04:21:41;40.23;;;20.17;;
14760;SDS011;7472;45.396;5.272;2022-12-07T04:24:09;33.83;;;18.07;;
14760;SDS011;7472;45.396;5.272;2022-12-07T04:26:38;33.67;;;19.00;;
14760;SDS011;7472;45.396;5.272;2022-12-07T04:29:05;35.72;;;18.30;;
14760;SDS011;7472;45.396;5.272;2022-12-07T04:31:33;36.22;;;18.75;;
14760;SDS011;7472;45.396;5.272;2022-12-07T04:34:00;38.08;;;19.17;;
14760;SDS011;7472;45.396;5.272;2022-12-07T04:36:27;36.17;;;20.33;;
14760;SDS011;7472;45.396;5.272;2022-12-07T04:38:55;35.88;;;19.15;;
14760;SDS011;7472;45.396;5.272;2022-12-07T04:41:23;37.35;;;20.80;;
14760;SDS011;7472;45.396;5.272;2022-12-07T04:43:55;35.42;;;18.15;;
14760;SDS011;7472;45.396;5.272;2022-12-07T04:46:22;36.47;;;19.63;;
14760;SDS011;7472;45.396;5.272;2022-12-07T04:48:50;36.20;;;18.40;;
14760;SDS011;7472;45.396;5.272;2022-12-07T04:51:19;39.10;;;19.60;;
14760;SDS011;7472;45.396;5.272;2022-12-07T04:53:46;40.63;;;20.35;;
14760;SDS011;7472;45.396;5.272;2022-12-07T04:56:14;36.05;;;19.55;;
14760;SDS011;7472;45.396;5.272;2022-12-07T04:58:42;35.30;;;19.75;;
14760;SDS011;7472;45.396;5.272;2022-12-07T05:01:11;42.92;;;22.55;;
14760;SDS011;7472;45.396;5.272;2022-12-07T05:03:38;39.17;;;21.13;;
14760;SDS011;7472;45.396;5.272;2022-12-07T05:06:06;31.13;;;18.63;;
14760;SDS011;7472;45.396;5.272;2022-12-07T05:08:34;39.10;;;20.17;;
14760;SDS011;7472;45.396;5.272;2022-12-07T05:11:02;35.35;;;19.77;;
14760;SDS011;7472;45.396;5.272;2022-12-07T05:13:29;41.92;;;19.67;;
14760;SDS011;7472;45.396;5.272;2022-12-07T05:15:57;36.97;;;18.63;;
14760;SDS011;7472;45.396;5.272;2022-12-07T05:18:25;38.38;;;19.27;;
14760;SDS011;7472;45.396;5.272;2022-12-07T05:20:53;36.00;;;19.58;;
14760;SDS011;7472;45.396;5.272;2022-12-07T05:23:20;35.72;;;20.02;;
14760;SDS011;7472;45.396;5.272;2022-12-07T05:25:48;37.13;;;19.65;;
14760;SDS011;7472;45.396;5.272;2022-12-07T05:28:15;37.95;;;19.38;;
14760;SDS011;7472;45.396;5.272;2022-12-07T05:30:42;49.42;;;25.92;;
14760;SDS011;7472;45.396;5.272;2022-12-07T05:33:10;40.70;;;22.47;;
14760;SDS011;7472;45.396;5.272;2022-12-07T05:35:39;33.53;;;18.63;;
14760;SDS011;7472;45.396;5.272;2022-12-07T05:38:07;33.92;;;19.77;;
14760;SDS011;7472;45.396;5.272;2022-12-07T05:40:35;36.53;;;19.27;;
14760;SDS011;7472;45.396;5.272;2022-12-07T05:43:03;35.63;;;19.63;;
14760;SDS011;7472;45.396;5.272;2022-12-07T05:45:31;38.83;;;21.43;;
14760;SDS011;7472;45.396;5.272;2022-12-07T05:47:58;40.97;;;22.50;;
14760;SDS011;7472;45.396;5.272;2022-12-07T05:50:26;45.17;;;22.48;;
14760;SDS011;7472;45.396;5.272;2022-12-07T05:52:55;36.70;;;20.52;;
14760;SDS011;7472;45.396;5.272;2022-12-07T05:55:23;32.67;;;19.00;;
14760;SDS011;7472;45.396;5.272;2022-12-07T05:57:50;44.47;;;23.97;;
14760;SDS011;7472;45.396;5.272;2022-12-07T06:00:32;37.20;;;19.13;;
14760;SDS011;7472;45.396;5.272;2022-12-07T06:02:59;32.45;;;17.05;;
14760;SDS011;7472;45.396;5.272;2022-12-07T06:05:27;33.03;;;18.27;;
14760;SDS011;7472;45.396;5.272;2022-12-07T06:07:59;32.20;;;18.00;;
14760;SDS011;7472;45.396;5.272;2022-12-07T06:10:27;35.90;;;18.87;;
14760;SDS011;7472;45.396;5.272;2022-12-07T06:12:54;35.47;;;18.67;;
14760;SDS011;7472;45.396;5.272;2022-12-07T06:15:20;34.63;;;20.60;;
14760;SDS011;7472;45.396;5.272;2022-12-07T06:17:48;33.53;;;18.57;;
14760;SDS011;7472;45.396;5.272;2022-12-07T06:20:16;29.50;;;16.97;;
14760;SDS011;7472;45.396;5.272;2022-12-07T06:22:43;40.40;;;23.83;;
14760;SDS011;7472;45.396;5.272;2022-12-07T06:25:12;32.70;;;18.93;;
14760;SDS011;7472;45.396;5.272;2022-12-07T06:27:40;32.85;;;16.88;;
14760;SDS011;7472;45.396;5.272;2022-12-07T06:30:07;33.80;;;18.77;;
14760;SDS011;7472;45.396;5.272;2022-12-07T06:32:36;33.77;;;18.57;;
14760;SDS011;7472;45.396;5.272;2022-12-07T06:35:03;31.15;;;18.20;;
14760;SDS011;7472;45.396;5.272;2022-12-07T06:37:31;40.22;;;19.80;;
14760;SDS011;7472;45.396;5.272;2022-12-07T06:39:58;34.67;;;21.15;;
14760;SDS011;7472;45.396;5.272;2022-12-07T06:42:27;35.73;;;22.20;;
14760;SDS011;7472;45.396;5.272;2022-12-07T06:44:55;36.53;;;21.43;;
14760;SDS011;7472;45.396;5.272;2022-12-07T06:47:22;32.00;;;18.38;;
14760;SDS011;7472;45.396;5.272;2022-12-07T06:49:49;35.15;;;18.33;;
14760;SDS011;7472;45.396;5.272;2022-12-07T06:52:17;31.52;;;18.58;;
14760;SDS011;7472;45.396;5.272;2022-12-07T06:54:44;37.67;;;20.30;;
14760;SDS011;7472;45.396;5.272;2022-12-07T06:57:12;43.70;;;23.23;;
14760;SDS011;7472;45.396;5.272;2022-12-07T06:59:40;38.78;;;22.88;;
14760;SDS011;7472;45.396;5.272;2022-12-07T07:02:08;33.07;;;18.23;;
14760;SDS011;7472;45.396;5.272;2022-12-07T07:04:36;32.87;;;18.03;;
14760;SDS011;7472;45.396;5.272;2022-12-07T07:07:04;36.77;;;20.87;;
14760;SDS011;7472;45.396;5.272;2022-12-07T07:09:31;32.92;;;19.48;;
14760;SDS011;7472;45.396;5.272;2022-12-07T07:11:59;31.33;;;19.08;;
14760;SDS011;7472;45.396;5.272;2022-12-07T07:14:26;34.70;;;20.20;;
14760;SDS011;7472;45.396;5.272;2022-12-07T07:16:55;37.27;;;22.03;;
14760;SDS011;7472;45.396;5.272;2022-12-07T07:19:22;36.90;;;20.73;;
14760;SDS011;7472;45.396;5.272;2022-12-07T07:21:50;33.97;;;19.53;;
14760;SDS011;7472;45.396;5.272;2022-12-07T07:24:17;31.00;;;19.63;;
14760;SDS011;7472;45.396;5.272;2022-12-07T07:26:45;33.38;;;18.45;;
14760;SDS011;7472;45.396;5.272;2022-12-07T07:29:12;30.77;;;18.23;;
14760;SDS011;7472;45.396;5.272;2022-12-07T07:31:39;34.47;;;19.20;;
14760;SDS011;7472;45.396;5.272;2022-12-07T07:34:08;35.58;;;20.20;;
14760;SDS011;7472;45.396;5.272;2022-12-07T07:36:36;34.47;;;20.37;;
14760;SDS011;7472;45.396;5.272;2022-12-07T07:39:03;32.28;;;18.33;;
14760;SDS011;7472;45.396;5.272;2022-12-07T07:41:31;31.73;;;18.37;;
14760;SDS011;7472;45.396;5.272;2022-12-07T07:43:58;30.63;;;17.67;;
14760;SDS011;7472;45.396;5.272;2022-12-07T07:46:25;31.37;;;19.43;;
14760;SDS011;7472;45.396;5.272;2022-12-07T07:48:53;32.05;;;20.05;;
14760;SDS011;7472;45.396;5.272;2022-12-07T07:51:22;34.33;;;18.17;;
14760;SDS011;7472;45.396;5.272;2022-12-07T07:53:49;31.73;;;17.93;;
14760;SDS011;7472;45.396;5.272;2022-12-07T07:56:17;35.47;;;19.10;;
14760;SDS011;7472;45.396;5.272;2022-12-07T07:58:44;31.50;;;18.07;;
14760;SDS011;7472;45.396;5.272;2022-12-07T08:01:11;33.30;;;17.87;;
14760;SDS011;7472;45.396;5.272;2022-12-07T08:03:40;30.05;;;17.60;;
14760;SDS011;7472;45.396;5.272;2022-12-07T08:06:07;31.20;;;17.65;;
14760;SDS011;7472;45.396;5.272;2022-12-07T08:08:36;31.10;;;18.53;;
14760;SDS011;7472;45.396;5.272;2022-12-07T08:11:04;31.88;;;17.58;;
14760;SDS011;7472;45.396;5.272;2022-12-07T08:13:32;29.17;;;17.00;;
14760;SDS011;7472;45.396;5.272;2022-12-07T08:16:02;27.60;;;16.73;;
14760;SDS011;7472;45.396;5.272;2022-12-07T08:18:30;26.05;;;14.73;;
14760;SDS011;7472;45.396;5.272;2022-12-07T08:20:58;26.87;;;17.17;;
14760;SDS011;7472;45.396;5.272;2022-12-07T08:23:26;26.00;;;15.47;;
14760;SDS011;7472;45.396;5.272;2022-12-07T08:25:55;24.87;;;15.57;;
14760;SDS011;7472;45.396;5.272;2022-12-07T08:28:27;28.70;;;16.52;;
14760;SDS011;7472;45.396;5.272;2022-12-07T08:30:58;26.30;;;15.07;;
14760;SDS011;7472;45.396;5.272;2022-12-07T08:33:25;25.35;;;14.55;;
14760;SDS011;7472;45.396;5.272;2022-12-07T08:35:53;22.40;;;14.48;;
14760;SDS011;7472;45.396;5.272;2022-12-07T08:38:20;22.63;;;14.70;;
14760;SDS011;7472;45.396;5.272;2022-12-07T08:40:53;26.60;;;15.53;;
14760;SDS011;7472;45.396;5.272;2022-12-07T08:43:22;24.52;;;16.10;;
14760;SDS011;7472;45.396;5.272;2022-12-07T08:45:51;24.23;;;14.57;;
14760;SDS011;7472;45.396;5.272;2022-12-07T08:48:20;19.83;;;12.18;;
14760;SDS011;7472;45.396;5.272;2022-12-07T08:50:49;20.88;;;13.38;;
14760;SDS011;7472;45.396;5.272;2022-12-07T08:53:17;21.70;;;12.13;;
14760;SDS011;7472;45.396;5.272;2022-12-07T08:55:45;17.45;;;12.35;;
14760;SDS011;7472;45.396;5.272;2022-12-07T08:58:13;21.00;;;12.27;;
14760;SDS011;7472;45.396;5.272;2022-12-07T09:00:42;22.42;;;12.52;;
14760;SDS011;7472;45.396;5.272;2022-12-07T09:03:09;19.10;;;12.52;;
14760;SDS011;7472;45.396;5.272;2022-12-07T09:05:36;16.27;;;11.10;;
14760;SDS011;7472;45.396;5.272;2022-12-07T09:08:04;14.23;;;9.65;;
14760;SDS011;7472;45.396;5.272;2022-12-07T09:10:32;17.08;;;10.77;;
14760;SDS011;7472;45.396;5.272;2022-12-07T09:12:59;14.30;;;9.55;;
14760;SDS011;7472;45.396;5.272;2022-12-07T09:15:26;16.02;;;10.38;;
14760;SDS011;7472;45.396;5.272;2022-12-07T09:17:55;15.65;;;10.15;;
14760;SDS011;7472;45.396;5.272;2022-12-07T09:20:23;16.10;;;10.47;;
14760;SDS011;7472;45.396;5.272;2022-12-07T09:22:50;14.30;;;9.75;;
14760;SDS011;7472;45.396;5.272;2022-12-07T09:25:18;14.90;;;9.83;;
14760;SDS011;7472;45.396;5.272;2022-12-07T09:27:45;16.80;;;10.30;;
14760;SDS011;7472;45.396;5.272;2022-12-07T09:30:13;13.73;;;9.65;;
14760;SDS011;7472;45.396;5.272;2022-12-07T09:32:40;14.07;;;9.60;;
14760;SDS011;7472;45.396;5.272;2022-12-07T09:35:09;12.23;;;8.75;;
14760;SDS011;7472;45.396;5.272;2022-12-07T09:37:36;13.20;;;7.55;;
14760;SDS011;7472;45.396;5.272;2022-12-07T09:40:04;12.93;;;8.63;;
14760;SDS011;7472;45.396;5.272;2022-12-07T09:42:32;16.15;;;8.85;;
14760;SDS011;7472;45.396;5.272;2022-12-07T09:45:01;14.83;;;9.57;;
14760;SDS011;7472;45.396;5.272;2022-12-07T09:47:29;12.68;;;8.80;;
14760;SDS011;7472;45.396;5.272;2022-12-07T09:49:58;11.57;;;9.10;;
14760;SDS011;7472;45.396;5.272;2022-12-07T09:52:29;13.88;;;9.50;;
14760;SDS011;7472;45.396;5.272;2022-12-07T09:54:57;13.03;;;9.37;;
14760;SDS011;7472;45.396;5.272;2022-12-07T09:57:27;15.55;;;9.82;;
14760;SDS011;7472;45.396;5.272;2022-12-07T09:59:55;16.50;;;10.35;;
14760;SDS011;7472;45.396;5.272;2022-12-07T10:02:24;12.15;;;9.43;;
14760;SDS011;7472;45.396;5.272;2022-12-07T10:04:52;17.33;;;9.10;;
14760;SDS011;7472;45.396;5.272;2022-12-07T10:07:20;12.77;;;8.30;;
14760;SDS011;7472;45.396;5.272;2022-12-07T10:09:49;16.90;;;11.55;;
14760;SDS011;7472;45.396;5.272;2022-12-07T10:12:16;13.63;;;9.60;;
14760;SDS011;7472;45.396;5.272;2022-12-07T10:14:53;17.05;;;12.63;;
14760;SDS011;7472;45.396;5.272;2022-12-07T10:17:26;12.82;;;8.35;;
14760;SDS011;7472;45.396;5.272;2022-12-07T10:20:07;12.35;;;7.78;;
14760;SDS011;7472;45.396;5.272;2022-12-07T10:22:35;11.82;;;7.65;;
14760;SDS011;7472;45.396;5.272;2022-12-07T10:25:09;12.80;;;9.60;;
14760;SDS011;7472;45.396;5.272;2022-12-07T10:27:44;14.07;;;8.30;;
14760;SDS011;7472;45.396;5.272;2022-12-07T10:30:23;11.05;;;7.72;;
14760;SDS011;7472;45.396;5.272;2022-12-07T10:32:51;11.60;;;8.02;;
14760;SDS011;7472;45.396;5.272;2022-12-07T10:35:20;13.45;;;8.70;;
14760;SDS011;7472;45.396;5.272;2022-12-07T10:37:48;12.77;;;7.70;;
14760;SDS011;7472;45.396;5.272;2022-12-07T10:40:28;13.02;;;8.55;;
14760;SDS011;7472;45.396;5.272;2022-12-07T10:43:06;11.70;;;8.20;;
14760;SDS011;7472;45.396;5.272;2022-12-07T10:45:42;11.18;;;7.30;;
14760;SDS011;7472;45.396;5.272;2022-12-07T10:48:11;12.95;;;7.93;;
14760;SDS011;7472;45.396;5.272;2022-12-07T10:53:35;12.00;;;7.50;;
14760;SDS011;7472;45.396;5.272;2022-12-07T10:56:17;14.60;;;8.00;;
14760;SDS011;7472;45.396;5.272;2022-12-07T10:58:55;11.60;;;9.15;;
14760;SDS011;7472;45.396;5.272;2022-12-07T11:01:24;12.75;;;8.60;;
14760;SDS011;7472;45.396;5.272;2022-12-07T11:06:36;13.70;;;9.23;;
14760;SDS011;7472;45.396;5.272;2022-12-07T11:09:15;13.68;;;8.90;;
14760;SDS011;7472;45.396;5.272;2022-12-07T11:11:48;13.45;;;8.90;;
14760;SDS011;7472;45.396;5.272;2022-12-07T11:14:19;15.00;;;9.88;;
14760;SDS011;7472;45.396;5.272;2022-12-07T11:16:52;18.67;;;11.10;;
14760;SDS011;7472;45.396;5.272;2022-12-07T11:19:30;16.13;;;11.35;;
14760;SDS011;7472;45.396;5.272;2022-12-07T11:22:00;17.42;;;10.77;;
14760;SDS011;7472;45.396;5.272;2022-12-07T11:24:32;16.13;;;10.43;;
14760;SDS011;7472;45.396;5.272;2022-12-07T11:27:12;17.85;;;10.93;;
14760;SDS011;7472;45.396;5.272;2022-12-07T11:29:47;17.02;;;10.85;;
14760;SDS011;7472;45.396;5.272;2022-12-07T11:32:17;17.17;;;11.32;;
14760;SDS011;7472;45.396;5.272;2022-12-07T11:34:49;15.70;;;10.70;;
14760;SDS011;7472;45.396;5.272;2022-12-07T11:37:23;20.52;;;11.85;;
14760;SDS011;7472;45.396;5.272;2022-12-07T11:39:52;17.97;;;11.23;;
14760;SDS011;7472;45.396;5.272;2022-12-07T11:42:24;15.90;;;10.52;;
14760;SDS011;7472;45.396;5.272;2022-12-07T11:44:53;20.35;;;11.93;;
14760;SDS011;7472;45.396;5.272;2022-12-07T11:47:24;14.55;;;9.50;;
14760;SDS011;7472;45.396;5.272;2022-12-07T11:49:53;17.65;;;11.23;;
14760;SDS011;7472;45.396;5.272;2022-12-07T11:52:22;17.15;;;10.52;;
14760;SDS011;7472;45.396;5.272;2022-12-07T11:54:52;16.80;;;11.05;;
14760;SDS011;7472;45.396;5.272;2022-12-07T11:57:22;17.50;;;10.80;;
14760;SDS011;7472;45.396;5.272;2022-12-07T11:59:53;14.57;;;8.70;;
14760;SDS011;7472;45.396;5.272;2022-12-07T12:02:25;16.88;;;10.63;;
14760;SDS011;7472;45.396;5.272;2022-12-07T12:04:54;16.27;;;10.37;;
14760;SDS011;7472;45.396;5.272;2022-12-07T12:07:23;17.38;;;9.77;;
14760;SDS011;7472;45.396;5.272;2022-12-07T12:09:52;17.10;;;11.40;;
14760;SDS011;7472;45.396;5.272;2022-12-07T12:15:23;17.10;;;10.75;;
14760;SDS011;7472;45.396;5.272;2022-12-07T12:17:58;18.13;;;10.85;;
14760;SDS011;7472;45.396;5.272;2022-12-07T12:20:29;16.60;;;10.93;;
14760;SDS011;7472;45.396;5.272;2022-12-07T12:23:00;17.10;;;10.35;;
14760;SDS011;7472;45.396;5.272;2022-12-07T12:25:29;17.95;;;11.40;;
14760;SDS011;7472;45.396;5.272;2022-12-07T12:27:57;17.10;;;10.70;;
14760;SDS011;7472;45.396;5.272;2022-12-07T12:30:34;16.48;;;10.85;;
14760;SDS011;7472;45.396;5.272;2022-12-07T12:33:03;11.20;;;6.63;;
14760;SDS011;7472;45.396;5.272;2022-12-07T12:35:32;17.92;;;11.50;;
14760;SDS011;7472;45.396;5.272;2022-12-07T12:38:20;18.67;;;11.75;;
14760;SDS011;7472;45.396;5.272;2022-12-07T12:40:52;17.00;;;11.55;;
14760;SDS011;7472;45.396;5.272;2022-12-07T12:48:53;21.40;;;13.33;;
14760;SDS011;7472;45.396;5.272;2022-12-07T12:51:37;20.08;;;12.35;;
14760;SDS011;7472;45.396;5.272;2022-12-07T12:54:05;16.60;;;7.97;;
14760;SDS011;7472;45.396;5.272;2022-12-07T12:56:35;19.73;;;12.25;;
14760;SDS011;7472;45.396;5.272;2022-12-07T12:59:21;21.05;;;14.18;;
14760;SDS011;7472;45.396;5.272;2022-12-07T13:01:49;19.42;;;11.88;;
14760;SDS011;7472;45.396;5.272;2022-12-07T13:04:21;25.67;;;13.20;;
14760;SDS011;7472;45.396;5.272;2022-12-07T13:06:50;23.70;;;12.50;;
14760;SDS011;7472;45.396;5.272;2022-12-07T13:09:19;23.83;;;13.98;;
14760;SDS011;7472;45.396;5.272;2022-12-07T13:11:48;20.80;;;13.77;;
14760;SDS011;7472;45.396;5.272;2022-12-07T13:20:01;27.13;;;13.70;;
14760;SDS011;7472;45.396;5.272;2022-12-07T13:25:19;24.55;;;14.00;;
14760;SDS011;7472;45.396;5.272;2022-12-07T13:27:48;19.15;;;12.93;;
14760;SDS011;7472;45.396;5.272;2022-12-07T13:30:18;22.20;;;14.02;;
14760;SDS011;7472;45.396;5.272;2022-12-07T13:32:50;20.27;;;12.75;;
14760;SDS011;7472;45.396;5.272;2022-12-07T13:35:30;20.58;;;13.35;;
14760;SDS011;7472;45.396;5.272;2022-12-07T13:37:58;21.38;;;14.05;;
14760;SDS011;7472;45.396;5.272;2022-12-07T13:40:26;24.23;;;14.93;;
14760;SDS011;7472;45.396;5.272;2022-12-07T13:42:57;23.98;;;14.23;;
14760;SDS011;7472;45.396;5.272;2022-12-07T13:45:25;22.38;;;15.13;;
14760;SDS011;7472;45.396;5.272;2022-12-07T13:48:14;22.58;;;14.57;;
14760;SDS011;7472;45.396;5.272;2022-12-07T13:50:48;22.20;;;13.35;;
14760;SDS011;7472;45.396;5.272;2022-12-07T13:53:19;21.23;;;12.57;;
14760;SDS011;7472;45.396;5.272;2022-12-07T13:55:46;25.00;;;15.13;;
14760;SDS011;7472;45.396;5.272;2022-12-07T13:58:14;23.98;;;14.77;;
14760;SDS011;7472;45.396;5.272;2022-12-07T14:00:42;24.42;;;15.38;;
14760;SDS011;7472;45.396;5.272;2022-12-07T14:03:30;24.52;;;15.23;;
14760;SDS011;7472;45.396;5.272;2022-12-07T14:06:07;28.73;;;17.38;;
14760;SDS011;7472;45.396;5.272;2022-12-07T14:08:38;30.38;;;15.18;;
14760;SDS011;7472;45.396;5.272;2022-12-07T14:11:06;28.58;;;16.05;;
14760;SDS011;7472;45.396;5.272;2022-12-07T14:13:36;26.58;;;16.10;;
14760;SDS011;7472;45.396;5.272;2022-12-07T14:16:16;27.63;;;16.30;;
14760;SDS011;7472;45.396;5.272;2022-12-07T14:18:45;27.10;;;15.88;;
14760;SDS011;7472;45.396;5.272;2022-12-07T14:21:16;22.80;;;15.27;;
14760;SDS011;7472;45.396;5.272;2022-12-07T14:23:44;28.88;;;16.60;;
14760;SDS011;7472;45.396;5.272;2022-12-07T14:26:12;27.77;;;16.55;;
14760;SDS011;7472;45.396;5.272;2022-12-07T14:28:41;26.70;;;14.65;;
14760;SDS011;7472;45.396;5.272;2022-12-07T14:31:10;23.02;;;12.60;;
14760;SDS011;7472;45.396;5.272;2022-12-07T14:33:38;32.22;;;18.48;;
14760;SDS011;7472;45.396;5.272;2022-12-07T14:36:07;30.35;;;17.40;;
14760;SDS011;7472;45.396;5.272;2022-12-07T14:38:37;24.02;;;14.85;;
14760;SDS011;7472;45.396;5.272;2022-12-07T14:41:04;25.05;;;15.07;;
14760;SDS011;7472;45.396;5.272;2022-12-07T14:43:51;23.23;;;14.05;;
14760;SDS011;7472;45.396;5.272;2022-12-07T14:46:18;25.25;;;15.60;;
14760;SDS011;7472;45.396;5.272;2022-12-07T14:48:46;30.42;;;19.30;;
14760;SDS011;7472;45.396;5.272;2022-12-07T14:51:13;27.92;;;17.35;;
14760;SDS011;7472;45.396;5.272;2022-12-07T14:53:43;31.35;;;20.10;;
14760;SDS011;7472;45.396;5.272;2022-12-07T14:56:11;25.37;;;17.13;;
14760;SDS011;7472;45.396;5.272;2022-12-07T14:58:39;36.33;;;26.25;;
14760;SDS011;7472;45.396;5.272;2022-12-07T15:01:07;26.40;;;14.80;;
14760;SDS011;7472;45.396;5.272;2022-12-07T15:03:34;22.65;;;15.23;;
14760;SDS011;7472;45.396;5.272;2022-12-07T15:06:03;26.33;;;16.45;;
14760;SDS011;7472;45.396;5.272;2022-12-07T15:08:31;24.58;;;14.63;;
14760;SDS011;7472;45.396;5.272;2022-12-07T15:11:00;21.52;;;15.52;;
14760;SDS011;7472;45.396;5.272;2022-12-07T15:13:27;26.42;;;15.15;;
14760;SDS011;7472;45.396;5.272;2022-12-07T15:16:13;24.13;;;15.73;;
14760;SDS011;7472;45.396;5.272;2022-12-07T15:18:40;24.37;;;15.27;;
14760;SDS011;7472;45.396;5.272;2022-12-07T15:21:10;23.42;;;14.73;;
14760;SDS011;7472;45.396;5.272;2022-12-07T15:23:38;23.58;;;14.65;;